• Join FlightAware (Why Join?)
  • Login
  • US Flag 
02:23AM EDT


 

Airport Tracker/Info


-or-


 

Live Flight TrackerFlight Track Log ✈ EJA951 ✈ 18-Mar-2014 ✈ KIAD - KSAN

Flight Track Log - Related Links

Times and Time Zones

All times are in EDT time to prevent confusion due to time zone crossing. See the EJA951 flight status page for this flight to view local times or setup timezone preferences in your user account.

Time Position Orientation Groundspeed Altitude Reporting Facility
EDT Latitude Longitude Course Direction KTS MPH feet Rate Location/Type
06:05PM 38.9500 -77.5000 256° West 182 209 1,700  Level Potomac TRACON
06:06PM 38.9333 -77.5833 256° West 244 281 4,600 2,700 Climbing Potomac TRACON
06:07PM 38.9167 -77.6667 256° West 247 284 7,100 2,520 Climbing Potomac TRACON
06:07PM 38.8833 -77.7500 243° Southwest 271 312 9,500 2,520 Climbing Potomac TRACON
06:08PM 38.8333 -77.8167 226° Southwest 283 326 12,000 2,400 Climbing Potomac TRACON
06:09PM 38.7833 -77.9000 232° Southwest 296 341 14,400 2,280 Climbing Potomac TRACON
06:10PM 38.7167 -77.9833 224° Southwest 309 356 16,600 1,080 Climbing Potomac TRACON
06:12PM 38.7725 -78.1053 300° West 309 356 17,000 480 Climbing Washington Center
06:13PM 38.8353 -78.1953 312° West 329 379 17,800 1,020 Climbing Washington Center
06:14PM 38.8553 -78.3294 281° West 367 422 19,100 1,080 Climbing Washington Center
06:15PM 38.8519 -78.4731 268° West 373 429 20,000 1,260 Climbing Washington Center
06:16PM 38.8503 -78.6169 269° West 395 455 21,700 2,040 Climbing Washington Center
06:17PM 38.8467 -78.7556 268° West 401 461 24,200 2,280 Climbing Washington Center
06:18PM 38.8453 -78.8914 269° West 396 456 26,200 1,380 Climbing Washington Center
06:19PM 38.8433 -79.0300 269° West 391 450 27,000 360 Climbing Washington Center
06:20PM 38.8411 -79.1844 269° West 411 473 27,000 240 Level Washington Center
06:21PM 38.8381 -79.3469 269° West 442 509 27,500 1,200 Climbing Washington Center
06:22PM 38.8353 -79.5014 269° West 447 514 29,400 1,860 Climbing Washington Center
06:23PM 38.8314 -79.6769 268° West 447 514 31,300 1,860 Climbing Washington Center
06:24PM 38.8289 -79.8128 269° West 440 506 33,200 1,860 Climbing Washington Center
06:25PM 38.8278 -79.9619 269° West 428 493 35,100 1,860 Climbing Washington Center
06:26PM 38.8192 -80.1383 266° West 405 466 37,400 1,440 Climbing Indianapolis Center
06:27PM 38.8150 -80.2794 268° West 400 460 38,400 900 Climbing Indianapolis Center
06:28PM 38.8103 -80.4219 268° West 400 460 39,300 720 Climbing Indianapolis Center
06:29PM 38.8061 -80.5647 268° West 400 460 40,000 300 Climbing Indianapolis Center
06:30PM 38.8017 -80.7108 268° West 406 467 40,000  Level Indianapolis Center
06:31PM 38.7961 -80.8914 268° West 420 483 40,000  Level Indianapolis Center
06:32PM 38.7908 -81.0436 268° West 424 488 40,000  Level Indianapolis Center
06:33PM 38.7861 -81.1944 268° West 424 488 40,000  Level Indianapolis Center
06:34PM 38.7808 -81.3450 267° West 425 489 40,000  Level Indianapolis Center
06:35PM 38.7744 -81.5078 267° West 425 489 40,000  Level Indianapolis Center
06:36PM 38.7692 -81.6572 267° West 425 489 40,000  Level Indianapolis Center
06:37PM 38.7633 -81.8086 267° West 416 479 40,000  Level Indianapolis Center
06:38PM 38.7567 -81.9536 267° West 411 473 40,000  Level Indianapolis Center
06:40PM 38.7508 -82.0986 267° West 410 472 40,000  Level Indianapolis Center
06:41PM 38.7450 -82.2742 268° West 410 472 40,000  Level Indianapolis Center
06:42PM 38.7392 -82.4214 267° West 413 475 40,000  Level Indianapolis Center
06:43PM 38.7331 -82.5689 267° West 413 475 40,000  Level Indianapolis Center
06:44PM 38.7267 -82.7139 267° West 412 474 40,000  Level Indianapolis Center
06:45PM 38.7206 -82.8611 267° West 413 475 40,000  Level Indianapolis Center
06:46PM 38.7142 -83.0083 267° West 413 475 40,000  Level Indianapolis Center
06:47PM 38.7075 -83.1703 267° West 413 475 40,000  Level Indianapolis Center
06:48PM 38.7000 -83.3183 266° West 413 475 40,000  Level Indianapolis Center
06:49PM 38.6922 -83.4647 266° West 413 475 40,000  Level Indianapolis Center
06:50PM 38.6861 -83.6119 267° West 413 475 40,000  Level Indianapolis Center
06:51PM 38.6769 -83.7869 266° West 413 475 40,000  Level Indianapolis Center
06:52PM 38.6689 -83.9325 266° West 413 475 40,000  Level Indianapolis Center
06:53PM 38.6614 -84.0786 266° West 413 475 40,000  Level Indianapolis Center
06:54PM 38.6533 -84.2250 266° West 413 475 40,000  Level Indianapolis Center
06:55PM 38.6531 -84.3733 270° West 413 475 40,000  Level Indianapolis Center
06:56PM 38.6628 -84.5408 274° West 411 473 40,000  Level Indianapolis Center
06:57PM 38.6706 -84.6892 274° West 412 474 40,000  Level Indianapolis Center
06:58PM 38.6792 -84.8344 274° West 412 474 40,000  Level Indianapolis Center
06:59PM 38.6875 -84.9814 274° West 413 475 40,000  Level Indianapolis Center
07:00PM 38.6956 -85.1261 274° West 412 474 40,000  Level Indianapolis Center
07:01PM 38.7039 -85.2694 274° West 408 470 40,000  Level Indianapolis Center
07:02PM 38.7122 -85.4414 274° West 405 466 40,000  Level Indianapolis Center
07:03PM 38.7194 -85.5842 274° West 405 466 40,000  Level Indianapolis Center
07:04PM 38.7267 -85.7236 274° West 399 459 40,000  Level Indianapolis Center
07:05PM 38.7331 -85.8650 273° West 399 459 40,000  Level Indianapolis Center
07:06PM 38.7403 -86.0144 274° West 399 459 40,000  Level Indianapolis Center
07:07PM 38.7467 -86.1536 273° West 397 457 40,000  Level Indianapolis Center
07:08PM 38.7525 -86.2942 273° West 396 456 40,000  Level Indianapolis Center
07:10PM 38.7589 -86.4331 273° West 396 456 40,000  Level Indianapolis Center
07:11PM 38.7642 -86.5731 273° West 395 455 40,000  Level Indianapolis Center
07:12PM 38.7711 -86.7414 273° West 395 455 40,000  Level Indianapolis Center
07:13PM 38.7767 -86.8814 273° West 395 455 40,000  Level Indianapolis Center
07:14PM 38.7819 -87.0217 273° West 395 455 40,000  Level Indianapolis Center
07:15PM 38.7878 -87.1631 273° West 395 455 40,000  Level Indianapolis Center
07:16PM 38.7933 -87.3047 273° West 396 456 40,000  Level Indianapolis Center
07:17PM 38.7978 -87.4461 272° West 396 456 40,000  Level Indianapolis Center
07:18PM 38.8036 -87.6164 273° West 397 457 40,000  Level Indianapolis Center
07:19PM 38.8083 -87.7600 272° West 400 460 40,000  Level Indianapolis Center
07:20PM 38.8117 -87.9036 272° West 401 461 40,000  Level Indianapolis Center
07:21PM 38.8158 -88.0481 272° West 401 461 40,000  Level Indianapolis Center
07:22PM 38.8172 -88.1667 271° West 402 463 40,000  Level Kansas City Center
07:23PM 38.8203 -88.3100 272° West 403 464 40,000  Level Kansas City Center
07:24PM 38.8233 -88.4542 272° West 403 464 40,000  Level Kansas City Center
07:25PM 38.8278 -88.6267 272° West 403 464 40,000  Level Kansas City Center
07:26PM 38.8311 -88.7494 272° West 403 464 40,000  Level Kansas City Center
07:27PM 38.8347 -88.9239 272° West 405 466 40,000  Level Kansas City Center
07:28PM 38.8417 -89.0708 274° West 408 470 40,000  Level Kansas City Center
07:29PM 38.8442 -89.2167 271° West 409 471 40,000  Level Kansas City Center
07:30PM 38.8469 -89.3625 271° West 410 472 40,000  Level Kansas City Center
07:31PM 38.8486 -89.5103 271° West 411 473 40,000  Level Kansas City Center
07:32PM 38.8514 -89.6589 271° West 415 478 40,000  Level Kansas City Center
07:33PM 38.8536 -89.8378 271° West 416 479 40,000  Level Kansas City Center
07:34PM 38.8556 -89.9853 271° West 416 479 40,000  Level Kansas City Center
07:35PM 38.8578 -90.1294 271° West 415 478 40,000  Level Kansas City Center
07:36PM 38.8581 -90.2769 270° West 413 475 40,000  Level Kansas City Center
07:37PM 38.8608 -90.4297 271° West 420 483 40,000  Level Kansas City Center
07:38PM 38.8756 -90.6075 276° West 423 487 40,000  Level Kansas City Center
07:39PM 38.8914 -90.7464 278° West 424 488 40,000  Level Kansas City Center
07:40PM 38.9097 -90.8961 279° West 424 488 40,000  Level Kansas City Center
07:41PM 38.9264 -91.0461 278° West 425 489 40,000  Level Kansas City Center
07:42PM 38.9439 -91.1978 278° West 426 490 40,000  Level Kansas City Center
07:43PM 38.9644 -91.3778 278° West 426 490 40,000  Level Kansas City Center
07:44PM 38.9803 -91.5289 278° West 427 491 40,000  Level Kansas City Center
07:45PM 38.9969 -91.6800 278° West 427 491 40,000  Level Kansas City Center
07:46PM 39.0147 -91.8486 278° West 428 493 40,000  Level Kansas City Center
07:48PM 39.0294 -92.0008 277° West 429 494 40,000  Level Kansas City Center
07:49PM 39.0456 -92.1536 278° West 429 494 40,000  Level Kansas City Center
07:50PM 39.0622 -92.3061 278° West 429 494 40,000  Level Kansas City Center
07:51PM 39.0767 -92.4608 277° West 431 496 40,000  Level Kansas City Center
07:52PM 39.0922 -92.6164 277° West 432 497 40,000  Level Kansas City Center
07:53PM 39.1089 -92.7789 278° West 433 498 40,000  Level Kansas City Center
07:54PM 39.1236 -92.9356 277° West 435 501 40,000  Level Kansas City Center
07:55PM 39.1417 -93.1219 277° West 437 503 40,000  Level Kansas City Center
07:56PM 39.1564 -93.2781 277° West 439 505 40,000  Level Kansas City Center
07:57PM 39.1708 -93.4344 277° West 438 504 40,000 420 Level Kansas City Center
07:58PM 39.1856 -93.5839 277° West 439 505 40,900 900 Climbing Kansas City Center
07:59PM 39.2008 -93.7517 277° West 426 490 41,900 840 Climbing Kansas City Center
08:00PM 39.2133 -93.8922 277° West 416 479 42,700 480 Climbing Kansas City Center
08:01PM 39.2275 -94.0531 277° West 408 470 43,000 120 Climbing Kansas City Center
08:02PM 39.2389 -94.1922 276° West 407 468 43,000  Level Kansas City Center
08:03PM 39.2542 -94.3572 277° West 412 474 43,000  Level Kansas City Center
08:04PM 39.2664 -94.5011 276° West 418 481 43,000  Level Kansas City Center
08:05PM 39.2797 -94.6689 276° West 419 482 43,000  Level Kansas City Center
08:06PM 39.2758 -94.8128 268° West 417 480 43,000  Level Kansas City Center
08:07PM 39.2594 -94.9578 262° West 426 490 43,000  Level Kansas City Center
08:08PM 39.2386 -95.1383 262° West 426 490 43,000  Level Kansas City Center
08:09PM 39.2225 -95.2839 262° West 426 490 43,000  Level Kansas City Center
08:10PM 39.2042 -95.4408 261° West 425 489 43,000  Level Kansas City Center
08:11PM 39.1856 -95.5956 261° West 425 489 43,000  Level Kansas City Center
08:12PM 39.1683 -95.7397 261° West 426 490 43,000  Level Kansas City Center
08:13PM 39.1478 -95.9100 261° West 429 494 43,000  Level Kansas City Center
08:14PM 39.1297 -96.0544 261° West 429 494 43,000  Level Kansas City Center
08:15PM 39.1086 -96.2233 261° West 429 494 43,000  Level Kansas City Center
08:16PM 39.0906 -96.3683 261° West 429 494 43,000  Level Kansas City Center
08:17PM 39.0719 -96.5133 261° West 428 493 43,000  Level Kansas City Center
08:18PM 39.0525 -96.6822 262° West 428 493 43,000  Level Kansas City Center
08:20PM 39.0322 -96.8272 260° West 429 494 43,000  Level Kansas City Center
08:21PM 39.0092 -96.9972 260° West 429 494 43,000  Level Kansas City Center
08:22PM 38.9906 -97.1422 261° West 429 494 43,000  Level Kansas City Center
08:23PM 38.9700 -97.2911 260° West 430 495 43,000  Level Kansas City Center
08:24PM 38.9494 -97.4428 260° West 430 495 43,000  Level Kansas City Center
08:25PM 38.9253 -97.6253 260° West 430 495 43,000  Level Kansas City Center
08:26PM 38.9078 -97.7706 261° West 430 495 43,000  Level Kansas City Center
08:27PM 38.8886 -97.9242 261° West 430 495 43,000  Level Kansas City Center
08:28PM 38.8703 -98.0742 261° West 430 495 43,000  Level Kansas City Center
08:29PM 38.8511 -98.2233 261° West 428 493 43,000  Level Kansas City Center
08:30PM 38.8322 -98.3728 261° West 428 493 43,000  Level Kansas City Center
08:31PM 38.8103 -98.5519 261° West 428 493 43,000  Level Kansas City Center
08:32PM 38.7903 -98.7014 260° West 428 493 43,000  Level Kansas City Center
08:33PM 38.7717 -98.8486 261° West 426 490 43,000  Level Kansas City Center
08:34PM 38.7522 -98.9967 260° West 425 489 43,000  Level Kansas City Center
08:35PM 38.7331 -99.1436 261° West 423 487 43,000  Level Kansas City Center
08:36PM 38.7125 -99.2919 260° West 423 487 43,000  Level Kansas City Center
08:37PM 38.6886 -99.4700 260° West 423 487 43,000  Level Kansas City Center
08:38PM 38.6667 -99.6219 260° West 423 487 43,000  Level Kansas City Center
08:39PM 38.6461 -99.7653 260° West 424 488 43,000  Level Kansas City Center
08:40PM 38.6242 -99.9358 261° West 431 496 43,000  Level Kansas City Center
08:41PM 38.6022 -100.0800 259° West 432 497 43,000  Level Kansas City Center
08:42PM 38.5778 -100.2481 260° West 432 497 43,000  Level Kansas City Center
08:43PM 38.5561 -100.3944 259° West 435 501 43,000  Level Kansas City Center
08:44PM 38.5319 -100.5631 260° West 435 501 43,000  Level Kansas City Center
08:45PM 38.5097 -100.7061 259° West 434 499 43,000  Level Kansas City Center
08:46PM 38.4881 -100.8472 259° West 432 497 43,000  Level Kansas City Center
08:47PM 38.4633 -101.0128 259° West 430 495 43,000  Level Kansas City Center
08:48PM 38.4422 -101.1519 259° West 425 489 43,000  Level Kansas City Center
08:49PM 38.4169 -101.3150 259° West 424 488 43,000  Level Kansas City Center
08:50PM 38.3944 -101.4561 259° West 424 488 43,000  Level Kansas City Center
08:51PM 38.3683 -101.6186 258° West 423 487 43,000  Level Kansas City Center
08:52PM 38.3600 -101.6850 261° West 422 486 43,000  Level Denver Center
08:53PM 38.3369 -101.8261 258° West 426 490 43,000  Level Denver Center
08:54PM 38.3100 -101.9919 258° West 426 490 43,000  Level Denver Center
08:55PM 38.2869 -102.1356 258° West 429 494 43,000  Level Denver Center
08:56PM 38.2597 -102.3014 258° West 430 495 43,000  Level Denver Center
08:57PM 38.2375 -102.4436 259° West 430 495 43,000  Level Denver Center
08:58PM 38.2092 -102.6097 258° West 431 496 43,000  Level Denver Center
08:59PM 38.1806 -102.7511 256° West 431 496 43,000  Level Denver Center
09:00PM 38.1397 -102.9119 252° West 431 496 43,000  Level Denver Center
09:01PM 38.1022 -103.0514 251° West 432 497 43,000  Level Denver Center
09:02PM 38.0617 -103.2103 252° West 433 498 43,000  Level Denver Center
09:03PM 38.0258 -103.3494 252° West 433 498 43,000  Level Denver Center
09:04PM 37.9839 -103.5106 252° West 434 499 43,000  Level Denver Center
09:05PM 37.9464 -103.6500 251° West 434 499 43,000  Level Denver Center
09:06PM 37.9042 -103.8111 252° West 435 501 43,000  Level Denver Center
09:07PM 37.8675 -103.9492 251° West 435 501 43,000  Level Denver Center
09:08PM 37.8239 -104.1108 251° West 435 501 43,000  Level Denver Center
09:09PM 37.7858 -104.2478 251° West 436 502 43,000  Level Denver Center
09:10PM 37.7422 -104.4094 251° West 436 502 43,000  Level Denver Center
09:11PM 37.7056 -104.5492 252° West 437 503 43,000  Level Denver Center
09:13PM 37.6614 -104.7083 251° West 436 502 43,000  Level Denver Center
09:14PM 37.6228 -104.8456 250° West 433 498 43,000  Level Denver Center
09:15PM 37.5839 -104.9842 251° West 435 501 43,000  Level Denver Center
09:16PM 37.5403 -105.1456 251° West 435 501 43,000  Level Denver Center
09:17PM 37.4986 -105.2894 250° West 437 503 43,000  Level Denver Center
09:18PM 37.4531 -105.4514 251° West 439 505 43,000  Level Denver Center
09:19PM 37.4144 -105.5914 251° West 441 507 43,000  Level Denver Center
09:20PM 37.3733 -105.7278 249° West 438 504 43,000  Level Denver Center
09:21PM 37.3297 -105.8883 251° West 437 503 43,000  Level Denver Center
09:22PM 37.2947 -106.0292 253° West 437 503 43,000  Level Denver Center
09:23PM 37.2528 -106.1928 252° West 439 505 43,000  Level Denver Center
09:24PM 37.2172 -106.3333 252° West 440 506 43,000  Level Denver Center
09:25PM 37.1744 -106.4964 252° West 440 506 43,000  Level Denver Center
09:26PM 37.1383 -106.6378 252° West 442 509 43,000  Level Denver Center
09:27PM 37.0939 -106.8022 251° West 444 511 43,000  Level Denver Center
09:28PM 37.0572 -106.9456 252° West 449 517 43,000  Level Denver Center
09:29PM 37.0125 -107.1108 251° West 449 517 43,000  Level Denver Center
09:30PM 36.9756 -107.2525 252° West 449 517 43,000  Level Denver Center
09:31PM 36.9375 -107.3950 252° West 449 517 43,000  Level Denver Center
09:32PM 36.8922 -107.5619 251° West 452 520 43,000  Level Denver Center
09:33PM 36.8531 -107.7053 251° West 453 521 43,000  Level Denver Center
09:34PM 36.8072 -107.8714 251° West 455 524 43,000  Level Denver Center
09:35PM 36.7683 -108.0139 251° West 454 522 43,000  Level Denver Center
09:36PM 36.7225 -108.1808 251° West 454 522 43,000  Level Denver Center
09:37PM 36.6819 -108.3244 251° West 455 524 43,000  Level Denver Center
09:38PM 36.6358 -108.4900 251° West 456 525 43,000  Level Denver Center
09:39PM 36.5953 -108.6344 251° West 460 529 43,000  Level Denver Center
09:40PM 36.5553 -108.7772 251° West 460 529 43,000  Level Denver Center
09:41PM 36.5072 -108.9439 250° West 460 529 43,000  Level Denver Center
09:42PM 36.4669 -109.0853 251° West 460 529 43,000  Level Denver Center
09:43PM 36.4192 -109.2497 250° West 459 528 43,000  Level Denver Center
09:44PM 36.3781 -109.3911 250° West 459 528 43,000  Level Denver Center
09:45PM 36.3297 -109.5564 250° West 459 528 43,000  Level Denver Center
09:47PM 36.2883 -109.6972 250° West 458 527 43,000  Level Denver Center
09:48PM 36.2406 -109.8617 250° West 458 527 43,000  Level Denver Center
09:49PM 36.1981 -110.0025 250° West 458 527 43,000  Level Denver Center
09:50PM 36.1506 -110.1636 250° West 458 527 43,000  Level Denver Center
09:51PM 36.1067 -110.3125 250° West 458 527 43,000  Level Denver Center
09:52PM 36.0617 -110.4603 249° West 458 527 43,000  Level Denver Center
09:53PM 36.0178 -110.6064 250° West 458 527 43,000  Level Denver Center
09:54PM 35.9722 -110.7547 249° West 458 527 43,000  Level Denver Center
09:55PM 35.9272 -110.9025 249° West 458 527 43,000  Level Denver Center
09:56PM 35.8742 -111.0783 250° West 458 527 43,000  Level Denver Center
09:57PM 35.8294 -111.2231 249° West 457 526 43,000  Level Denver Center
09:58PM 35.7753 -111.3972 249° West 456 525 43,000  Level Denver Center
09:59PM 35.7297 -111.5406 249° West 455 524 43,000  Level Denver Center
10:00PM 35.6844 -111.6858 249° West 455 524 43,000  Level Denver Center
10:01PM 35.6511 -111.7889 248° West 454 522 43,000  Level Los Angeles Center
10:02PM 35.6044 -111.9353 249° West 461 531 43,000  Level Los Angeles Center
10:03PM 35.5589 -112.0822 249° West 462 532 43,000  Level Los Angeles Center
10:04PM 35.5128 -112.2269 249° West 459 528 43,000  Level Los Angeles Center
10:06PM 35.4092 -112.5483 248° West 462 532 43,000  Level Los Angeles Center
10:07PM 35.3708 -112.6650 248° West 462 532 43,000  Level Albuquerque Center
10:08PM 35.3222 -112.8122 248° West 460 529 43,000  Level Albuquerque Center
10:09PM 35.2753 -112.9572 248° West 460 529 43,000  Level Albuquerque Center
10:10PM 35.2253 -113.1125 249° West 463 533 43,000  Level Albuquerque Center
10:11PM 35.1783 -113.2544 248° West 454 522 43,000  Level Albuquerque Center
10:12PM 35.1297 -113.3975 247° West 455 524 43,000 -180 Level Albuquerque Center
10:13PM 35.0831 -113.5403 248° West 455 524 42,700 -1,200 Descending Albuquerque Center
10:14PM 35.0358 -113.6819 248° West 454 522 40,600 -2,160 Descending Albuquerque Center
10:15PM 34.9794 -113.8486 248° West 447 514 38,300 -2,100 Descending Albuquerque Center
10:16PM 34.9322 -113.9878 248° West 446 513 36,400 -1,860 Descending Albuquerque Center
10:17PM 34.8875 -114.1197 248° West 443 510 34,600 -1,860 Descending Albuquerque Center
10:18PM 34.8394 -114.2578 247° West 441 507 32,700 -1,920 Descending Albuquerque Center
10:19PM 34.7911 -114.4006 248° West 450 518 30,700 -1,380 Descending Albuquerque Center
10:20PM 34.7203 -114.5286 236° Southwest 462 532 30,000 -360 Descending Albuquerque Center
10:21PM 34.6017 -114.6619 223° Southwest 419 482 30,000 -180 Level Los Angeles Center
10:22PM 34.5211 -114.7528 223° Southwest 403 464 29,700 -720 Descending Los Angeles Center
10:23PM 34.4417 -114.8417 223° Southwest 393 452 28,600 -840 Descending Los Angeles Center
10:24PM 34.3650 -114.9286 223° Southwest 384 442 28,000 -300 Descending Los Angeles Center
10:25PM 34.2869 -115.0183 224° Southwest 384 442 28,000  Level Los Angeles Center
10:26PM 34.2069 -115.1072 223° Southwest 389 448 28,000  Level Los Angeles Center
10:28PM 34.1275 -115.1975 223° Southwest 392 451 28,000 -180 Level Los Angeles Center
10:29PM 34.0264 -115.3108 223° Southwest 410 472 27,700 -840 Descending Los Angeles Center
10:30PM 33.9394 -115.4078 223° Southwest 425 489 26,300 -1,380 Descending Los Angeles Center
10:31PM 33.8569 -115.4994 223° Southwest 409 471 24,900 -1,140 Descending Los Angeles Center
10:32PM 33.7767 -115.5903 223° Southwest 399 459 24,000 -480 Descending Los Angeles Center
10:33PM 33.6942 -115.6797 222° Southwest 400 460 24,000  Level Los Angeles Center
10:34PM 33.6136 -115.7719 224° Southwest 401 461 24,000  Level Los Angeles Center
10:35PM 33.5522 -115.8800 236° Southwest 393 452 24,000  Level Los Angeles Center
10:36PM 33.4778 -116.0081 235° Southwest 392 451 24,000 -480 Level Los Angeles Center
10:37PM 33.4014 -116.0939 223° Southwest 374 430 23,100 -1,620 Descending Los Angeles Center
10:38PM 33.3172 -116.1678 216° Southwest 375 432 20,700 -2,460 Descending Los Angeles Center
10:39PM 33.2283 -116.2467 217° Southwest 396 456 18,100 -2,400 Descending Los Angeles Center
10:40PM 33.1469 -116.3183 216° Southwest 376 433 15,900 -2,160 Descending Los Angeles Center
10:41PM 33.0714 -116.3856 217° Southwest 347 399 13,700 -1,920 Descending Los Angeles Center
10:42PM 32.9872 -116.4553 215° Southwest 327 376 12,000 -840 Descending Los Angeles Center
10:43PM 32.9044 -116.5019 205° Southwest 327 376 12,000  Level Los Angeles Center
10:44PM 32.8319 -116.5581 213° Southwest 322 371 12,000 -540 Level Los Angeles Center
10:45PM 32.7892 -116.6447 240° Southwest 308 354 10,900 -1,380 Descending Los Angeles Center
10:46PM 32.7492 -116.7283 240° Southwest 300 345 9,200 -1,740 Descending Los Angeles Center
10:47PM 32.7128 -116.8072 241° Southwest 237 273 7,400 -2,100 Descending Los Angeles Center
10:48PM 32.6878 -116.8764 247° West 229 264 5,000 -1,380 Descending Los Angeles Center
10:49PM 32.6733 -116.9519 257° West 236 272 4,600 -840 Descending Los Angeles Center
10:50PM 32.6911 -117.0167 288° West 211 243 3,300 -1,140 Descending Los Angeles Center
10:51PM 32.7053 -117.0711 287° West 183 211 2,300 -1,020 Descending Los Angeles Center
10:52PM 32.7172 -117.1231 285° West 169 194 1,300 -960 Descending Los Angeles Center
10:53PM 32.7281 -117.1650 287° West 147 169 400 -900 Descending Los Angeles Center
10:55PM 32.7333 -117.1833 281° West  Level FlightAware Approximate
11:02PM 32.7336 -117.1897 281° West  Level Estimated